createdAt,value
2019-03-21T00:02:38.776Z,0.0
2019-03-21T00:13:04.878Z,0.0
2019-03-21T00:25:36.344Z,0.0
2019-03-21T00:36:21.810Z,0.0
2019-03-21T00:47:11.992Z,0.0
2019-03-21T00:57:49.321Z,0.0
2019-03-21T01:08:35.745Z,0.0
2019-03-21T01:18:49.505Z,0.0
2019-03-21T01:29:05.157Z,0.0
2019-03-21T01:39:18.883Z,0.0
2019-03-21T01:49:33.055Z,0.0
2019-03-21T01:59:47.553Z,0.0
2019-03-21T02:10:33.029Z,0.0
2019-03-21T02:21:26.721Z,0.0
2019-03-21T02:32:34.987Z,0.0
2019-03-21T02:43:11.673Z,0.0
2019-03-21T02:53:44.086Z,0.0
2019-03-21T03:04:30.020Z,0.0
2019-03-21T03:15:22.825Z,0.0
2019-03-21T03:25:28.935Z,0.0
2019-03-21T03:36:15.734Z,0.0
2019-03-21T03:47:01.767Z,0.0
2019-03-21T03:57:49.334Z,0.0
2019-03-21T04:08:14.377Z,0.0
2019-03-21T04:18:28.768Z,0.0
2019-03-21T04:29:14.799Z,0.0
2019-03-21T04:39:46.422Z,0.0
2019-03-21T04:50:00.345Z,0.0
2019-03-21T05:00:11.409Z,0.0
2019-03-21T05:10:29.942Z,4.0
2019-03-21T05:20:43.728Z,16.0
2019-03-21T05:30:55.454Z,56.0
2019-03-21T05:41:40.850Z,164.0
2019-03-21T05:52:05.839Z,304.0
2019-03-21T06:02:20.398Z,424.0
2019-03-21T06:12:45.342Z,648.0
2019-03-21T06:23:31.034Z,1188.0
2019-03-21T06:34:37.864Z,1192.0
2019-03-21T06:45:47.870Z,1820.0
2019-03-21T06:56:41.711Z,3440.0
2019-03-21T07:08:03.395Z,4792.0
2019-03-21T07:19:27.558Z,6892.0
2019-03-21T07:29:41.484Z,12624.0
2019-03-21T07:39:55.671Z,15968.0
2019-03-21T07:50:41.875Z,20448.0
2019-03-21T08:01:28.184Z,24352.0
2019-03-21T08:12:19.082Z,27936.0
2019-03-21T08:22:40.729Z,32608.0
2019-03-21T08:33:03.280Z,37600.0
2019-03-21T08:43:21.965Z,41664.0
2019-03-21T08:53:35.978Z,51456.0
2019-03-21T09:04:22.065Z,55968.0
2019-03-21T09:15:08.093Z,51424.0
2019-03-21T09:25:20.779Z,55968.0
2019-03-21T09:35:34.163Z,47840.0
2019-03-21T09:45:48.465Z,56224.0
2019-03-21T09:56:01.077Z,54528.0
2019-03-21T10:06:12.693Z,29056.0
2019-03-21T10:16:57.919Z,65824.0
2019-03-21T10:27:43.560Z,72256.0
2019-03-21T10:38:07.341Z,72384.0
2019-03-21T10:48:18.929Z,51360.0
2019-03-21T10:58:38.332Z,42368.0
2019-03-21T11:08:49.531Z,10496.0
2019-03-21T11:19:07.700Z,72320.0
2019-03-21T11:29:21.668Z,21824.0
2019-03-21T11:39:34.919Z,27648.0
2019-03-21T11:49:46.572Z,79008.0
2019-03-21T11:59:57.677Z,84320.0
2019-03-21T12:11:26.762Z,73152.0
2019-03-21T12:21:38.870Z,74880.0
2019-03-21T12:32:07.348Z,68288.0
2019-03-21T12:42:21.382Z,34176.0
2019-03-21T13:02:46.667Z,22400.0
2019-03-21T13:07:13.306Z,29504.0
2019-03-21T13:13:46.381Z,20480.0
2019-03-21T13:23:59.725Z,35904.0
2019-03-21T13:34:17.750Z,49120.0
2019-03-21T13:44:31.986Z,44224.0
2019-03-21T13:55:20.266Z,42496.0
2019-03-21T14:05:41.913Z,43808.0
2019-03-21T14:16:47.970Z,43104.0
2019-03-21T14:27:38.738Z,17440.0
2019-03-21T14:37:52.240Z,22176.0
2019-03-21T14:48:12.137Z,19904.0
2019-03-21T14:59:07.541Z,20512.0
2019-03-21T15:09:30.619Z,19776.0
2019-03-21T15:20:17.196Z,15872.0
2019-03-21T15:31:06.719Z,20896.0
2019-03-21T15:44:04.694Z,15520.0
2019-03-21T15:55:48.144Z,9760.0
2019-03-21T16:06:34.584Z,8332.0
2019-03-21T16:17:48.859Z,5860.0
2019-03-21T16:28:43.376Z,4796.0
2019-03-21T16:39:31.399Z,5340.0
2019-03-21T16:50:21.073Z,3388.0
2019-03-21T17:01:15.823Z,2160.0
2019-03-21T17:11:37.945Z,1584.0
2019-03-21T17:21:54.225Z,1028.0
2019-03-21T17:32:44.847Z,556.0
2019-03-21T17:43:31.934Z,240.0
2019-03-21T17:54:20.894Z,76.0
2019-03-21T18:05:33.581Z,16.0
2019-03-21T18:16:25.255Z,4.0
2019-03-21T18:27:18.464Z,0.0
2019-03-21T18:38:27.145Z,0.0
2019-03-21T18:49:20.876Z,0.0
2019-03-21T19:00:22.698Z,0.0
2019-03-21T19:29:43.122Z,0.0
2019-03-21T19:44:45.116Z,0.0
2019-03-21T19:56:34.027Z,0.0
2019-03-21T20:39:35.464Z,0.0
2019-03-21T21:28:32.733Z,0.0
2019-03-21T21:39:33.332Z,0.0
2019-03-21T21:50:55.369Z,0.0
2019-03-21T22:01:59.200Z,0.0
2019-03-21T22:13:24.288Z,0.0
2019-03-21T22:24:11.157Z,0.0
2019-03-21T22:35:16.811Z,0.0
2019-03-21T22:46:25.562Z,0.0
2019-03-21T22:56:51.078Z,0.0
2019-03-21T23:07:38.495Z,0.0
2019-03-21T23:18:02.881Z,0.0
2019-03-21T23:28:59.469Z,0.0
2019-03-21T23:40:45.375Z,0.0
2019-03-21T23:52:06.294Z,0.0
